createdAt,value
2023-05-05T00:00:37.743Z,9.25
2023-05-05T00:01:40.172Z,10.82
2023-05-05T00:02:42.609Z,7.25
2023-05-05T00:03:44.969Z,6.63
2023-05-05T00:04:47.361Z,6.68
2023-05-05T00:05:50.442Z,6.97
2023-05-05T00:06:53.227Z,8.40
2023-05-05T00:07:55.451Z,12.77
2023-05-05T00:08:57.845Z,9.85
2023-05-05T00:10:00.048Z,14.38
2023-05-05T00:11:02.309Z,12.38
2023-05-05T00:12:05.146Z,9.15
2023-05-05T00:13:07.561Z,7.88
2023-05-05T00:14:09.782Z,6.65
2023-05-05T00:15:12.279Z,10.05
2023-05-05T00:16:14.993Z,10.48
2023-05-05T00:17:17.554Z,7.18
2023-05-05T00:18:20.912Z,6.93
2023-05-05T00:19:23.106Z,8.07
2023-05-05T00:20:25.545Z,8.75
2023-05-05T00:21:27.906Z,6.32
2023-05-05T00:22:30.396Z,8.07
2023-05-05T00:23:32.972Z,7.43
2023-05-05T00:24:36.024Z,7.95
2023-05-05T00:25:38.587Z,6.85
2023-05-05T00:26:41.040Z,8.65
2023-05-05T00:27:43.254Z,9.95
2023-05-05T00:28:45.933Z,11.60
2023-05-05T00:29:48.172Z,10.30
2023-05-05T00:30:50.495Z,6.20
2023-05-05T00:31:52.953Z,10.68
2023-05-05T00:32:55.663Z,9.80
2023-05-05T00:33:58.080Z,10.98
2023-05-05T00:35:00.345Z,12.18
2023-05-05T00:36:02.764Z,15.73
2023-05-05T00:37:05.065Z,9.35
2023-05-05T00:38:07.432Z,10.80
2023-05-05T00:39:10.211Z,12.73
2023-05-05T00:40:13.297Z,11.88
2023-05-05T00:41:15.527Z,9.55
2023-05-05T00:42:17.929Z,10.45
2023-05-05T00:43:21.333Z,8.75
2023-05-05T00:44:39.792Z,8.30
2023-05-05T00:45:44.320Z,9.70
2023-05-05T00:46:46.729Z,8.98
2023-05-05T00:47:53.614Z,11.63
2023-05-05T00:48:56.584Z,11.40
2023-05-05T00:49:59.024Z,7.15
2023-05-05T00:51:01.498Z,8.07
2023-05-05T00:52:05.178Z,8.52
2023-05-05T00:53:07.427Z,10.40
2023-05-05T00:54:09.679Z,10.57
2023-05-05T00:55:12.177Z,10.38
2023-05-05T00:56:16.828Z,9.23
2023-05-05T00:57:20.606Z,7.32
2023-05-05T00:58:23.116Z,8.30
2023-05-05T00:59:27.476Z,8.32
2023-05-05T01:00:34.285Z,6.40
2023-05-05T01:01:36.614Z,10.13
2023-05-05T01:02:40.275Z,11.95
2023-05-05T01:03:42.658Z,9.82
2023-05-05T01:04:45.017Z,10.05
2023-05-05T01:06:17.990Z,7.72
2023-05-05T01:07:37.756Z,9.60
2023-05-05T01:09:05.457Z,8.05
2023-05-05T01:10:20.759Z,8.48
2023-05-05T01:11:29.464Z,10.18
2023-05-05T01:12:52.163Z,14.77
2023-05-05T01:14:14.523Z,9.35
2023-05-05T01:15:32.626Z,8.05
2023-05-05T01:16:38.707Z,10.57
2023-05-05T01:17:53.232Z,8.07
2023-05-05T01:19:29.401Z,8.35
2023-05-05T01:20:55.688Z,9.38
2023-05-05T01:22:02.273Z,9.77
2023-05-05T01:23:09.300Z,8.90
2023-05-05T01:24:37.275Z,8.32
2023-05-05T01:26:05.743Z,23.20
2023-05-05T01:27:17.176Z,12.48
2023-05-05T01:28:54.476Z,7.07
2023-05-05T01:30:28.142Z,7.35
2023-05-05T01:31:39.797Z,8.02
2023-05-05T01:32:48.049Z,8.98
2023-05-05T01:33:59.028Z,13.30
2023-05-05T01:36:15.665Z,11.00
2023-05-05T01:37:30.339Z,9.07
2023-05-05T01:38:38.122Z,9.68
2023-05-05T01:39:43.456Z,13.50
2023-05-05T01:40:50.993Z,8.73
2023-05-05T01:41:58.932Z,10.00
2023-05-05T01:43:03.854Z,10.40
2023-05-05T01:44:08.121Z,11.23
2023-05-05T01:45:13.753Z,10.45
2023-05-05T01:46:17.821Z,10.60
2023-05-05T01:47:23.472Z,10.57
2023-05-05T01:48:29.919Z,11.30
2023-05-05T01:49:34.373Z,11.13
2023-05-05T01:50:37.472Z,14.30
2023-05-05T01:51:40.957Z,10.85
2023-05-05T01:52:45.061Z,11.88
2023-05-05T01:53:48.150Z,11.32
2023-05-05T01:54:52.823Z,9.68
2023-05-05T01:55:58.348Z,10.90
2023-05-05T01:57:04.882Z,8.90
2023-05-05T01:58:08.257Z,12.23
2023-05-05T01:59:11.633Z,10.05
2023-05-05T02:00:16.588Z,30.50
2023-05-05T02:01:24.161Z,13.02
2023-05-05T02:02:28.608Z,8.70
2023-05-05T02:03:32.224Z,14.13
2023-05-05T02:04:37.094Z,8.95
2023-05-05T02:05:40.666Z,10.38
2023-05-05T02:06:44.380Z,8.40
2023-05-05T02:07:46.991Z,10.30
2023-05-05T02:08:51.295Z,10.95
2023-05-05T02:09:54.377Z,9.50
2023-05-05T02:10:57.820Z,9.30
2023-05-05T02:12:02.431Z,11.63
2023-05-05T02:13:05.504Z,12.85
2023-05-05T02:14:10.723Z,9.40
2023-05-05T02:15:15.337Z,9.05
2023-05-05T02:16:19.953Z,9.82
2023-05-05T02:17:23.947Z,11.02
2023-05-05T02:18:28.474Z,14.35
2023-05-05T02:19:36.348Z,9.57
2023-05-05T02:20:40.035Z,9.77
2023-05-05T02:21:42.676Z,10.07
2023-05-05T02:22:45.202Z,10.25
2023-05-05T02:23:51.761Z,13.85
2023-05-05T02:24:54.629Z,8.82
2023-05-05T02:26:09.183Z,11.18
2023-05-05T02:27:12.326Z,11.90
2023-05-05T02:28:22.515Z,16.98
2023-05-05T02:29:32.814Z,9.82
2023-05-05T02:30:36.570Z,9.73
2023-05-05T02:31:44.258Z,12.40
2023-05-05T02:32:53.959Z,13.05
2023-05-05T02:33:58.486Z,11.02
2023-05-05T02:35:17.442Z,8.77
2023-05-05T02:36:26.030Z,9.98
2023-05-05T02:37:34.125Z,8.63
2023-05-05T02:38:41.559Z,9.13
2023-05-05T02:39:51.785Z,9.40
2023-05-05T02:40:58.037Z,15.23
2023-05-05T02:42:05.832Z,11.85
2023-05-05T02:43:11.510Z,10.80
2023-05-05T02:44:15.592Z,12.60
2023-05-05T02:45:22.386Z,14.20
2023-05-05T02:46:26.035Z,10.18
2023-05-05T02:47:35.999Z,10.60
2023-05-05T02:48:38.474Z,12.90
2023-05-05T02:49:41.022Z,16.08
2023-05-05T02:50:43.957Z,10.27
2023-05-05T02:52:02.186Z,12.50
2023-05-05T02:53:09.123Z,9.82
2023-05-05T02:54:11.483Z,11.13
2023-05-05T02:55:15.036Z,9.50
2023-05-05T02:56:27.037Z,12.02
2023-05-05T02:58:04.794Z,10.02
2023-05-05T02:59:16.287Z,10.48
2023-05-05T03:01:37.226Z,11.73
2023-05-05T03:03:05.811Z,10.80
2023-05-05T03:04:16.338Z,11.05
2023-05-05T03:05:28.557Z,12.85
2023-05-05T03:06:36.439Z,10.70
2023-05-05T03:07:43.017Z,10.02
2023-05-05T03:08:58.546Z,6.45
2023-05-05T03:10:18.736Z,12.50
2023-05-05T03:11:37.184Z,11.02
2023-05-05T03:12:51.145Z,13.20
2023-05-05T03:14:08.993Z,10.52
2023-05-05T03:15:13.760Z,12.90
2023-05-05T03:16:18.604Z,11.27
2023-05-05T03:17:23.974Z,11.02
2023-05-05T03:18:29.235Z,10.35
2023-05-05T03:19:37.973Z,7.95
2023-05-05T03:20:40.858Z,9.52
2023-05-05T03:21:45.852Z,9.70
2023-05-05T03:22:49.287Z,10.18
2023-05-05T03:23:52.007Z,9.95
2023-05-05T03:24:57.378Z,12.52
2023-05-05T03:26:00.253Z,25.60
2023-05-05T03:27:07.213Z,16.08
2023-05-05T03:28:14.650Z,14.82
2023-05-05T03:29:17.515Z,10.45
2023-05-05T03:30:20.265Z,12.38
2023-05-05T03:31:25.425Z,11.75
2023-05-05T03:32:31.901Z,11.02
2023-05-05T03:33:34.312Z,13.07
2023-05-05T03:34:37.835Z,11.13
2023-05-05T03:35:41.565Z,11.57
2023-05-05T03:36:47.425Z,10.00
2023-05-05T03:37:51.339Z,16.60
2023-05-05T03:38:54.255Z,13.75
2023-05-05T03:39:57.764Z,11.23
2023-05-05T03:41:05.297Z,9.60
2023-05-05T03:42:08.126Z,9.75
2023-05-05T03:43:11.647Z,8.60
2023-05-05T03:44:14.042Z,22.60
2023-05-05T03:45:17.225Z,10.98
2023-05-05T03:46:19.564Z,6.82
2023-05-05T03:47:24.560Z,9.55
2023-05-05T03:48:27.431Z,13.88
2023-05-05T03:49:30.087Z,9.68
2023-05-05T03:50:33.237Z,16.50
2023-05-05T03:51:36.458Z,11.70
2023-05-05T03:52:38.828Z,9.77
2023-05-05T03:53:41.532Z,7.75
2023-05-05T03:54:46.102Z,12.45
2023-05-05T03:55:48.541Z,11.27
2023-05-05T03:56:50.928Z,9.45
2023-05-05T03:57:53.244Z,12.23
2023-05-05T03:58:55.792Z,12.00
2023-05-05T03:59:58.101Z,15.68
2023-05-05T04:01:01.834Z,17.15
2023-05-05T04:02:04.527Z,16.35
2023-05-05T04:03:06.999Z,14.68
2023-05-05T04:04:13.133Z,9.10
2023-05-05T04:05:15.938Z,12.27
2023-05-05T04:06:18.616Z,10.85
2023-05-05T04:07:23.635Z,14.13
2023-05-05T04:08:25.897Z,12.60
2023-05-05T04:09:28.128Z,10.15
2023-05-05T04:10:30.728Z,11.82
2023-05-05T04:11:33.482Z,14.23
2023-05-05T04:12:36.303Z,13.70
2023-05-05T04:13:38.598Z,14.77
2023-05-05T04:14:40.892Z,9.05
2023-05-05T04:15:47.130Z,11.82
2023-05-05T04:16:50.533Z,9.30
2023-05-05T04:17:53.570Z,11.82
2023-05-05T04:18:56.101Z,11.32
2023-05-05T04:19:58.525Z,16.05
2023-05-05T04:21:01.213Z,8.90
2023-05-05T04:22:03.536Z,17.13
2023-05-05T04:23:07.126Z,11.20
2023-05-05T04:24:09.803Z,13.52
2023-05-05T04:25:12.285Z,13.82
2023-05-05T04:26:14.688Z,14.40
2023-05-05T04:27:16.941Z,11.13
2023-05-05T04:28:21.840Z,15.48
2023-05-05T04:29:24.435Z,11.32
2023-05-05T04:30:26.739Z,14.43
2023-05-05T04:31:29.303Z,21.42
2023-05-05T04:32:31.880Z,17.17
2023-05-05T04:33:34.763Z,16.58
2023-05-05T04:34:37.233Z,11.18
2023-05-05T04:35:39.975Z,13.85
2023-05-05T04:36:42.837Z,19.38
2023-05-05T04:37:46.095Z,12.20
2023-05-05T04:38:48.755Z,18.25
2023-05-05T04:39:51.134Z,12.25
2023-05-05T04:40:53.374Z,19.10
2023-05-05T04:41:55.853Z,14.05
2023-05-05T04:42:58.065Z,15.32
2023-05-05T04:44:00.782Z,24.70
2023-05-05T04:45:03.846Z,15.65
2023-05-05T04:46:07.162Z,14.30
2023-05-05T04:47:13.878Z,13.35
2023-05-05T04:48:16.860Z,12.85
2023-05-05T04:49:19.243Z,9.82
2023-05-05T04:50:21.687Z,12.15
2023-05-05T04:51:23.956Z,12.60
2023-05-05T04:52:26.357Z,20.17
2023-05-05T04:53:28.661Z,19.77
2023-05-05T04:54:30.864Z,17.58
2023-05-05T04:55:33.593Z,15.95
2023-05-05T04:56:36.091Z,16.17
2023-05-05T04:57:38.350Z,11.68
2023-05-05T04:58:40.764Z,12.07
2023-05-05T04:59:42.973Z,15.80
2023-05-05T05:00:45.201Z,18.73
2023-05-05T05:01:47.805Z,15.88
2023-05-05T05:02:50.074Z,12.00
2023-05-05T05:03:52.735Z,17.45
2023-05-05T05:04:54.995Z,24.73
2023-05-05T05:05:57.477Z,14.10
2023-05-05T05:07:01.566Z,17.95
2023-05-05T05:08:04.025Z,12.45
2023-05-05T05:09:06.194Z,15.30
2023-05-05T05:10:09.071Z,13.90
2023-05-05T05:11:12.174Z,18.75
2023-05-05T05:12:14.386Z,15.40
2023-05-05T05:13:16.644Z,16.30
2023-05-05T05:14:18.943Z,11.75
2023-05-05T05:15:21.265Z,14.98
2023-05-05T05:16:25.365Z,13.02
2023-05-05T05:17:30.195Z,19.38
2023-05-05T05:18:33.026Z,17.67
2023-05-05T05:19:35.206Z,16.00
2023-05-05T05:20:38.066Z,15.98
2023-05-05T05:21:40.465Z,24.83
2023-05-05T05:22:42.878Z,15.63
2023-05-05T05:23:49.666Z,17.50
2023-05-05T05:24:52.335Z,22.45
2023-05-05T05:25:55.898Z,17.75
2023-05-05T05:26:58.661Z,17.10
2023-05-05T05:28:10.235Z,14.35
2023-05-05T05:29:20.085Z,18.85
2023-05-05T05:30:23.529Z,14.50
2023-05-05T05:31:25.848Z,19.27
2023-05-05T05:32:30.664Z,17.60
2023-05-05T05:33:33.150Z,17.50
2023-05-05T05:34:35.790Z,21.63
2023-05-05T05:35:39.589Z,25.33
2023-05-05T05:36:41.941Z,23.02
2023-05-05T05:37:44.271Z,22.02
2023-05-05T05:38:46.708Z,21.80
2023-05-05T05:39:52.327Z,16.90
2023-05-05T05:40:56.710Z,25.60
2023-05-05T05:42:00.631Z,18.30
2023-05-05T05:43:03.226Z,24.17
2023-05-05T05:44:06.352Z,20.55
2023-05-05T05:45:09.304Z,28.13
2023-05-05T05:46:12.745Z,16.75
2023-05-05T05:47:17.045Z,21.35
2023-05-05T05:48:21.446Z,42.20
2023-05-05T05:49:23.685Z,27.50
2023-05-05T05:50:28.601Z,31.85
2023-05-05T05:51:32.060Z,33.67
2023-05-05T05:52:36.361Z,29.88
2023-05-05T05:53:40.646Z,22.17
2023-05-05T05:54:44.320Z,29.65
2023-05-05T05:55:47.007Z,25.65
2023-05-05T05:56:51.244Z,45.42
2023-05-05T05:57:53.564Z,22.73
2023-05-05T05:58:56.202Z,30.08
2023-05-05T06:00:01.627Z,25.27
2023-05-05T06:01:14.126Z,25.65
2023-05-05T06:02:16.740Z,25.75
2023-05-05T06:03:19.617Z,26.50
2023-05-05T06:04:22.534Z,21.55
2023-05-05T06:05:24.781Z,22.92
2023-05-05T06:06:28.025Z,23.67
2023-05-05T06:07:30.264Z,22.17
2023-05-05T06:08:32.898Z,22.45
2023-05-05T06:09:35.457Z,20.58
2023-05-05T06:10:37.751Z,21.63
2023-05-05T06:11:44.734Z,22.05
2023-05-05T06:12:46.967Z,22.50
2023-05-05T06:13:49.231Z,18.02
2023-05-05T06:14:51.894Z,27.65
2023-05-05T06:15:54.646Z,16.52
2023-05-05T06:16:56.927Z,17.77
2023-05-05T06:18:01.866Z,20.30
2023-05-05T06:19:09.411Z,14.95
2023-05-05T06:20:13.932Z,19.67
2023-05-05T06:21:16.534Z,19.70
2023-05-05T06:22:18.796Z,17.13
2023-05-05T06:23:21.277Z,27.92
2023-05-05T06:24:29.145Z,15.30
2023-05-05T06:25:31.944Z,18.13
2023-05-05T06:26:34.505Z,18.40
2023-05-05T06:27:36.698Z,19.23
2023-05-05T06:28:39.330Z,17.35
2023-05-05T06:29:41.709Z,24.40
2023-05-05T06:30:44.259Z,24.23
2023-05-05T06:31:47.112Z,23.45
2023-05-05T06:32:49.694Z,20.25
2023-05-05T06:33:52.168Z,26.42
2023-05-05T06:34:54.341Z,18.67
2023-05-05T06:35:56.515Z,20.60
2023-05-05T06:36:58.888Z,21.15
2023-05-05T06:38:01.151Z,21.38
2023-05-05T06:39:03.900Z,19.35
2023-05-05T06:40:07.947Z,19.73
2023-05-05T06:41:10.581Z,20.38
2023-05-05T06:42:12.967Z,18.38
2023-05-05T06:43:15.246Z,21.38
2023-05-05T06:44:22.157Z,21.52
2023-05-05T06:45:24.383Z,21.92
2023-05-05T06:46:26.644Z,20.73
2023-05-05T06:47:28.906Z,19.10
2023-05-05T06:48:31.296Z,18.52
2023-05-05T06:49:33.935Z,31.95
2023-05-05T06:50:36.503Z,21.05
2023-05-05T06:51:40.560Z,21.52
2023-05-05T06:52:44.421Z,20.63
2023-05-05T06:53:46.886Z,19.65
2023-05-05T06:54:49.237Z,15.95
2023-05-05T06:55:51.550Z,18.20
2023-05-05T06:56:53.787Z,16.25
2023-05-05T06:57:56.136Z,19.45
2023-05-05T06:58:58.540Z,19.13
2023-05-05T07:00:00.925Z,21.02
2023-05-05T07:01:04.082Z,17.10
2023-05-05T07:02:06.560Z,14.50
2023-05-05T07:03:09.150Z,15.00
2023-05-05T07:04:11.410Z,13.77
2023-05-05T07:05:14.126Z,17.38
2023-05-05T07:06:16.338Z,18.45
2023-05-05T07:07:18.509Z,15.93
2023-05-05T07:08:20.937Z,22.92
2023-05-05T07:09:23.107Z,15.52
2023-05-05T07:10:26.297Z,23.02
2023-05-05T07:11:28.517Z,19.45
2023-05-05T07:12:33.869Z,15.82
2023-05-05T07:13:38.339Z,13.32
2023-05-05T07:14:40.907Z,16.58
2023-05-05T07:15:49.414Z,18.27
2023-05-05T07:16:51.745Z,16.75
2023-05-05T07:17:54.110Z,16.23
2023-05-05T07:18:56.855Z,18.20
2023-05-05T07:19:59.211Z,17.25
2023-05-05T07:21:03.020Z,20.05
2023-05-05T07:22:06.323Z,15.77
2023-05-05T07:23:08.602Z,25.77
2023-05-05T07:24:10.796Z,19.48
2023-05-05T07:25:13.334Z,19.17
2023-05-05T07:26:15.935Z,22.08
2023-05-05T07:27:18.130Z,18.48
2023-05-05T07:28:22.333Z,16.52
2023-05-05T07:29:24.556Z,18.20
2023-05-05T07:30:26.767Z,12.98
2023-05-05T07:31:29.454Z,14.90
2023-05-05T07:32:31.846Z,16.67
2023-05-05T07:33:34.076Z,17.05
2023-05-05T07:34:37.937Z,14.38
2023-05-05T07:35:40.568Z,18.20
2023-05-05T07:36:43.000Z,16.10
2023-05-05T07:37:46.215Z,12.55
2023-05-05T07:38:48.454Z,13.00
2023-05-05T07:39:50.794Z,13.95
2023-05-05T07:40:52.985Z,16.95
2023-05-05T07:41:55.388Z,13.43
2023-05-05T07:42:57.562Z,16.85
2023-05-05T07:44:01.186Z,13.57
2023-05-05T07:45:04.730Z,14.55
2023-05-05T07:46:07.356Z,19.10
2023-05-05T07:47:09.648Z,20.88
2023-05-05T07:48:12.287Z,20.00
2023-05-05T07:49:14.692Z,19.77
2023-05-05T07:50:17.122Z,16.95
2023-05-05T07:51:19.332Z,18.17
2023-05-05T07:52:30.091Z,16.48
2023-05-05T07:53:41.423Z,16.58
2023-05-05T07:54:45.221Z,18.40
2023-05-05T07:55:47.677Z,18.17
2023-05-05T07:56:50.038Z,19.77
2023-05-05T07:57:52.229Z,16.33
2023-05-05T07:58:55.375Z,15.25
2023-05-05T07:59:57.760Z,14.85
2023-05-05T08:01:01.308Z,14.52
2023-05-05T08:02:03.914Z,17.05
2023-05-05T08:03:08.303Z,17.88
2023-05-05T08:04:12.334Z,18.10
2023-05-05T08:05:14.608Z,14.48
2023-05-05T08:06:21.781Z,17.42
2023-05-05T08:07:24.004Z,13.55
2023-05-05T08:08:26.963Z,16.05
2023-05-05T08:09:29.272Z,14.35
2023-05-05T08:10:31.500Z,14.25
2023-05-05T08:11:33.906Z,25.77
2023-05-05T08:12:37.063Z,19.25
2023-05-05T08:13:39.287Z,16.00
2023-05-05T08:14:42.677Z,19.92
2023-05-05T08:15:45.453Z,12.50
2023-05-05T08:16:47.765Z,21.45
2023-05-05T08:17:52.284Z,12.25
2023-05-05T08:18:54.582Z,12.88
2023-05-05T08:20:07.431Z,14.00
2023-05-05T08:21:10.827Z,12.45
2023-05-05T08:22:13.060Z,17.83
2023-05-05T08:23:15.402Z,19.60
2023-05-05T08:24:17.603Z,25.75
2023-05-05T08:25:19.801Z,11.75
2023-05-05T08:26:22.858Z,17.58
2023-05-05T08:27:25.088Z,10.40
2023-05-05T08:28:27.252Z,16.23
2023-05-05T08:29:29.512Z,11.45
2023-05-05T08:30:31.908Z,18.05
2023-05-05T08:31:37.142Z,15.20
2023-05-05T08:32:39.412Z,16.63
2023-05-05T08:33:41.754Z,17.42
2023-05-05T08:34:46.279Z,15.90
2023-05-05T08:35:49.409Z,13.43
2023-05-05T08:36:51.985Z,15.68
2023-05-05T08:37:55.441Z,13.88
2023-05-05T08:39:00.117Z,18.13
2023-05-05T08:40:02.471Z,27.88
2023-05-05T08:41:08.362Z,13.60
2023-05-05T08:42:12.332Z,15.10
2023-05-05T08:43:20.188Z,14.60
2023-05-05T08:44:22.580Z,16.73
2023-05-05T08:45:25.542Z,17.90
2023-05-05T08:46:28.491Z,13.88
2023-05-05T08:47:32.275Z,11.85
2023-05-05T08:48:36.622Z,15.55
2023-05-05T08:49:48.089Z,13.88
2023-05-05T08:50:57.401Z,13.30
2023-05-05T08:52:04.949Z,15.98
2023-05-05T08:53:11.852Z,13.85
2023-05-05T08:54:19.982Z,12.68
2023-05-05T08:55:25.501Z,15.30
2023-05-05T08:56:39.916Z,17.80
2023-05-05T08:57:56.145Z,20.98
2023-05-05T08:58:59.575Z,15.65
2023-05-05T09:00:04.206Z,28.92
2023-05-05T09:01:07.693Z,17.70
2023-05-05T09:02:10.613Z,21.85
2023-05-05T09:03:13.582Z,12.43
2023-05-05T09:04:16.787Z,14.32
2023-05-05T09:05:18.948Z,12.43
2023-05-05T09:06:22.376Z,13.50
2023-05-05T09:07:25.119Z,19.05
2023-05-05T09:08:28.329Z,16.05
2023-05-05T09:09:30.883Z,10.82
2023-05-05T09:10:34.101Z,12.88
2023-05-05T09:11:37.578Z,10.93
2023-05-05T09:12:42.899Z,15.38
2023-05-05T09:13:45.170Z,12.02
2023-05-05T09:14:47.732Z,10.60
2023-05-05T09:15:50.114Z,11.20
2023-05-05T09:16:52.373Z,11.25
2023-05-05T09:17:57.745Z,10.85
2023-05-05T09:19:04.517Z,10.43
2023-05-05T09:20:08.401Z,17.02
2023-05-05T09:21:24.813Z,17.63
2023-05-05T09:22:43.091Z,14.55
2023-05-05T09:24:09.118Z,17.83
2023-05-05T09:25:16.538Z,11.88
2023-05-05T09:26:18.920Z,16.75
2023-05-05T09:27:23.360Z,16.38
2023-05-05T09:28:26.037Z,11.98
2023-05-05T09:29:28.942Z,23.45
2023-05-05T09:30:31.557Z,11.13
2023-05-05T09:31:36.188Z,12.00
2023-05-05T09:32:49.014Z,12.82
2023-05-05T09:33:51.699Z,9.98
2023-05-05T09:34:59.000Z,10.68
2023-05-05T09:36:01.589Z,10.73
2023-05-05T09:37:04.118Z,11.60
2023-05-05T09:38:15.214Z,9.02
2023-05-05T09:39:20.193Z,23.67
2023-05-05T09:40:22.717Z,16.45
2023-05-05T09:41:42.341Z,11.98
2023-05-05T09:42:45.074Z,11.15
2023-05-05T09:43:52.489Z,12.10
2023-05-05T09:44:54.796Z,14.75
2023-05-05T09:46:07.797Z,12.68
2023-05-05T09:47:26.047Z,11.85
2023-05-05T09:48:32.561Z,16.98
2023-05-05T09:49:36.244Z,20.15
2023-05-05T09:50:44.768Z,9.60
2023-05-05T09:51:48.149Z,12.52
2023-05-05T09:53:01.866Z,13.52
2023-05-05T09:54:04.130Z,19.63
2023-05-05T09:55:08.184Z,10.60
2023-05-05T09:56:10.533Z,10.45
2023-05-05T09:57:33.556Z,13.95
2023-05-05T09:58:36.301Z,10.38
2023-05-05T09:59:39.040Z,12.68
2023-05-05T10:00:41.573Z,15.40
2023-05-05T10:01:44.250Z,12.38
2023-05-05T10:02:46.857Z,13.82
2023-05-05T10:03:52.534Z,13.77
2023-05-05T10:05:07.373Z,17.85
2023-05-05T10:06:09.832Z,11.70
2023-05-05T10:07:23.248Z,13.25
2023-05-05T10:08:28.023Z,14.38
2023-05-05T10:09:31.914Z,14.02
2023-05-05T10:10:35.232Z,11.50
2023-05-05T10:11:37.528Z,12.55
2023-05-05T10:12:40.363Z,13.13
2023-05-05T10:13:43.015Z,13.18
2023-05-05T10:14:45.777Z,12.70
2023-05-05T10:15:51.498Z,13.38
2023-05-05T10:16:55.532Z,12.82
2023-05-05T10:18:07.460Z,17.73
2023-05-05T10:19:14.321Z,12.55
2023-05-05T10:20:18.876Z,20.67
2023-05-05T10:21:21.756Z,14.15
2023-05-05T10:22:26.171Z,15.10
2023-05-05T10:23:36.112Z,12.18
2023-05-05T10:24:55.343Z,7.47
2023-05-05T10:26:07.379Z,14.82
2023-05-05T10:27:19.090Z,7.90
2023-05-05T10:28:32.536Z,20.52
2023-05-05T10:30:04.455Z,12.82
2023-05-05T10:31:24.489Z,14.00
2023-05-05T10:32:56.836Z,14.95
2023-05-05T10:36:38.658Z,9.32
2023-05-05T10:37:41.691Z,10.45
2023-05-05T10:38:46.609Z,7.57
2023-05-05T10:39:50.599Z,7.22
2023-05-05T10:40:53.230Z,13.98
2023-05-05T10:41:55.659Z,12.45
2023-05-05T10:42:59.321Z,12.52
2023-05-05T10:44:03.765Z,9.20
2023-05-05T10:45:07.821Z,11.55
2023-05-05T10:46:11.256Z,13.95
2023-05-05T10:47:13.822Z,10.43
2023-05-05T10:48:25.593Z,12.23
2023-05-05T10:50:04.017Z,9.13
2023-05-05T10:51:39.558Z,9.27
2023-05-05T10:53:20.666Z,9.77
2023-05-05T10:54:38.531Z,11.50
2023-05-05T10:55:57.286Z,12.48
2023-05-05T10:57:02.801Z,9.52
2023-05-05T10:58:05.025Z,7.60
2023-05-05T10:59:38.669Z,8.75
2023-05-05T11:00:41.369Z,13.63
2023-05-05T11:01:43.837Z,8.85
2023-05-05T11:02:46.277Z,12.98
2023-05-05T11:03:48.785Z,10.38
2023-05-05T11:05:21.549Z,11.10
2023-05-05T11:06:24.042Z,8.77
2023-05-05T11:07:27.689Z,9.85
2023-05-05T11:08:34.051Z,7.38
2023-05-05T11:09:53.835Z,8.07
2023-05-05T11:10:56.198Z,9.18
2023-05-05T11:12:03.498Z,9.70
2023-05-05T11:13:08.667Z,14.45
2023-05-05T11:14:22.369Z,9.80
2023-05-05T11:15:27.339Z,7.88
2023-05-05T11:16:43.559Z,6.68
2023-05-05T11:17:47.783Z,8.27
2023-05-05T11:18:50.324Z,8.13
2023-05-05T11:19:53.367Z,6.82
2023-05-05T11:20:58.348Z,7.60
2023-05-05T11:22:04.167Z,10.38
2023-05-05T11:23:06.608Z,17.52
2023-05-05T11:24:29.277Z,9.68
2023-05-05T11:25:34.501Z,11.32
2023-05-05T11:26:51.478Z,8.77
2023-05-05T11:28:10.691Z,7.00
2023-05-05T11:29:13.082Z,8.30
2023-05-05T11:30:15.630Z,10.05
2023-05-05T11:31:19.226Z,10.38
2023-05-05T11:32:21.498Z,7.47
2023-05-05T11:33:31.851Z,8.43
2023-05-05T11:34:34.377Z,8.02
2023-05-05T11:35:55.568Z,8.23
2023-05-05T11:37:03.427Z,12.75
2023-05-05T11:38:07.993Z,7.20
2023-05-05T11:39:24.166Z,9.40
2023-05-05T11:40:36.957Z,6.68
2023-05-05T11:42:06.547Z,10.40
2023-05-05T11:43:12.125Z,13.32
2023-05-05T11:44:16.625Z,11.65
2023-05-05T11:45:21.740Z,12.00
2023-05-05T11:46:24.035Z,6.97
2023-05-05T11:47:28.270Z,11.88
2023-05-05T11:48:30.634Z,6.68
2023-05-05T11:49:35.376Z,7.32
2023-05-05T11:50:37.963Z,6.53
2023-05-05T11:51:40.396Z,10.82
2023-05-05T11:52:43.018Z,5.55
2023-05-05T11:53:49.716Z,5.68
2023-05-05T11:54:52.000Z,6.88
2023-05-05T11:56:06.966Z,12.05
2023-05-05T11:57:09.389Z,10.82
2023-05-05T11:58:18.708Z,7.90
2023-05-05T11:59:21.696Z,14.50
2023-05-05T12:00:33.916Z,10.95
2023-05-05T12:01:42.878Z,8.55
2023-05-05T12:02:45.423Z,8.77
2023-05-05T12:03:48.122Z,21.80
2023-05-05T12:04:51.317Z,10.57
2023-05-05T12:05:56.719Z,10.75
2023-05-05T12:07:00.039Z,8.63
2023-05-05T12:08:02.302Z,9.27
2023-05-05T12:09:04.710Z,6.97
2023-05-05T12:10:07.859Z,11.15
2023-05-05T12:11:11.695Z,8.90
2023-05-05T12:12:15.302Z,4.35
2023-05-05T12:13:21.173Z,9.88
2023-05-05T12:14:25.610Z,10.98
2023-05-05T12:15:29.700Z,6.90
2023-05-05T12:16:31.991Z,7.25
2023-05-05T12:17:42.865Z,8.45
2023-05-05T12:18:45.429Z,6.97
2023-05-05T12:19:54.704Z,7.03
2023-05-05T12:20:56.961Z,11.70
2023-05-05T12:22:03.127Z,7.40
2023-05-05T12:23:05.661Z,7.65
2023-05-05T12:24:13.174Z,15.07
2023-05-05T12:25:16.337Z,7.10
2023-05-05T12:26:26.432Z,7.90
2023-05-05T12:27:29.256Z,11.50
2023-05-05T12:28:46.393Z,7.60
2023-05-05T12:29:49.266Z,14.02
2023-05-05T12:31:00.740Z,6.68
2023-05-05T12:32:04.250Z,9.13
2023-05-05T12:33:09.094Z,10.25
2023-05-05T12:34:12.015Z,8.38
2023-05-05T12:35:14.710Z,6.47
2023-05-05T12:36:17.075Z,15.90
2023-05-05T12:37:20.946Z,8.13
2023-05-05T12:38:23.377Z,6.68
2023-05-05T12:39:36.269Z,8.15
2023-05-05T12:40:51.778Z,7.10
2023-05-05T12:42:05.249Z,4.85
2023-05-05T12:43:07.880Z,5.45
2023-05-05T12:44:10.191Z,8.40
2023-05-05T12:45:17.688Z,11.25
2023-05-05T12:46:20.094Z,4.80
2023-05-05T12:47:32.870Z,9.52
2023-05-05T12:48:38.036Z,6.95
2023-05-05T12:49:50.977Z,10.25
2023-05-05T12:50:53.268Z,13.05
2023-05-05T12:51:56.991Z,10.77
2023-05-05T12:52:59.236Z,5.70
2023-05-05T12:54:12.031Z,12.07
2023-05-05T12:55:14.517Z,6.85
2023-05-05T12:56:36.487Z,5.80
2023-05-05T12:57:39.625Z,6.45
2023-05-05T12:58:50.821Z,7.80
2023-05-05T12:59:53.748Z,8.07
2023-05-05T13:01:09.103Z,11.27
2023-05-05T13:02:11.430Z,10.93
2023-05-05T13:03:20.313Z,22.67
2023-05-05T13:04:24.087Z,13.90
2023-05-05T13:05:33.524Z,8.45
2023-05-05T13:06:36.196Z,22.13
2023-05-05T13:07:50.811Z,8.05
2023-05-05T13:08:53.312Z,10.05
2023-05-05T13:10:10.803Z,9.07
2023-05-05T13:11:13.669Z,8.30
2023-05-05T13:12:18.196Z,8.95
2023-05-05T13:13:20.499Z,7.38
2023-05-05T13:14:23.401Z,5.57
2023-05-05T13:15:26.193Z,7.65
2023-05-05T13:16:28.576Z,10.68
2023-05-05T13:17:33.353Z,10.75
2023-05-05T13:18:49.679Z,11.40
2023-05-05T13:19:52.232Z,9.18
2023-05-05T13:20:54.561Z,10.02
2023-05-05T13:21:58.113Z,9.93
2023-05-05T13:23:00.360Z,10.05
2023-05-05T13:24:18.913Z,6.80
2023-05-05T13:25:25.008Z,5.97
2023-05-05T13:26:28.291Z,12.52
2023-05-05T13:27:30.537Z,10.05
2023-05-05T13:28:32.755Z,15.15
2023-05-05T13:29:35.213Z,7.13
2023-05-05T13:30:37.425Z,5.30
2023-05-05T13:31:39.982Z,4.20
2023-05-05T13:32:42.512Z,7.47
2023-05-05T13:33:44.984Z,11.02
2023-05-05T13:34:47.471Z,12.93
2023-05-05T13:35:49.746Z,9.52
2023-05-05T13:36:52.119Z,11.43
2023-05-05T13:37:54.574Z,11.05
2023-05-05T13:38:56.889Z,10.27
2023-05-05T13:40:00.575Z,10.82
2023-05-05T13:41:03.119Z,5.35
2023-05-05T13:42:05.486Z,5.60
2023-05-05T13:43:07.882Z,7.78
2023-05-05T13:44:10.292Z,13.45
2023-05-05T13:45:14.344Z,12.82
2023-05-05T13:46:19.584Z,7.95
2023-05-05T13:47:22.524Z,17.20
2023-05-05T13:48:25.049Z,7.80
2023-05-05T13:49:27.287Z,10.18
2023-05-05T13:50:29.862Z,5.82
2023-05-05T13:51:32.981Z,8.65
2023-05-05T13:52:35.613Z,8.73
2023-05-05T13:53:39.895Z,10.25
2023-05-05T13:54:42.466Z,9.55
2023-05-05T13:55:45.020Z,16.45
2023-05-05T13:56:47.289Z,12.93
2023-05-05T13:57:49.856Z,6.50
2023-05-05T13:58:52.430Z,8.18
2023-05-05T13:59:54.619Z,8.43
2023-05-05T14:00:57.030Z,15.68
2023-05-05T14:02:00.935Z,5.45
2023-05-05T14:03:03.278Z,7.63
2023-05-05T14:04:06.090Z,14.32
2023-05-05T14:05:09.410Z,10.80
2023-05-05T14:06:11.964Z,9.10
2023-05-05T14:07:14.405Z,9.13
2023-05-05T14:08:18.132Z,12.65
2023-05-05T14:09:20.594Z,5.78
2023-05-05T14:10:22.992Z,8.30
2023-05-05T14:11:25.201Z,9.25
2023-05-05T14:12:27.979Z,8.75
2023-05-05T14:13:30.282Z,8.88
2023-05-05T14:14:32.498Z,6.55
2023-05-05T14:15:34.713Z,9.10